createdAt,value
2019-03-16T00:01:35.391Z,100534.25
2019-03-16T00:04:04.622Z,100535.94
2019-03-16T00:06:36.080Z,100549.96
2019-03-16T00:09:07.868Z,100560.04
2019-03-16T00:11:37.416Z,100574.50
2019-03-16T00:14:06.655Z,100557.38
2019-03-16T00:16:35.927Z,100561.78
2019-03-16T00:19:05.519Z,100565.77
2019-03-16T00:21:34.851Z,100566.23
2019-03-16T00:24:04.081Z,100554.02
2019-03-16T00:26:33.430Z,100563.42
2019-03-16T00:29:02.753Z,100575.18
2019-03-16T00:31:32.027Z,100557.72
2019-03-16T00:34:01.296Z,100572.30
2019-03-16T00:36:30.635Z,100566.15
2019-03-16T00:39:00.101Z,100564.09
2019-03-16T00:41:29.428Z,100569.37
2019-03-16T00:43:58.711Z,100571.56
2019-03-16T00:46:27.928Z,100576.56
2019-03-16T00:48:57.149Z,100588.41
2019-03-16T00:51:26.375Z,100588.05
2019-03-16T00:53:55.598Z,100596.00
2019-03-16T00:56:24.900Z,100601.30
2019-03-16T00:58:54.231Z,100598.76
2019-03-16T01:01:23.498Z,100600.94
2019-03-16T01:03:52.926Z,100602.34
2019-03-16T01:06:22.199Z,100602.80
2019-03-16T01:08:51.530Z,100611.73
2019-03-16T01:11:20.797Z,100604.69
2019-03-16T01:13:50.135Z,100620.86
2019-03-16T01:16:19.405Z,100621.62
2019-03-16T01:18:48.628Z,100602.89
2019-03-16T01:21:17.856Z,100634.40
2019-03-16T01:23:47.095Z,100615.98
2019-03-16T01:26:16.417Z,100622.66
2019-03-16T01:28:45.747Z,100616.08
2019-03-16T01:31:14.963Z,100627.98
2019-03-16T01:33:44.334Z,100615.11
2019-03-16T01:36:13.577Z,100629.90
2019-03-16T01:38:42.806Z,100617.28
2019-03-16T01:41:12.059Z,100621.20
2019-03-16T01:43:41.299Z,100613.30
2019-03-16T01:46:10.546Z,100625.16
2019-03-16T01:48:39.763Z,100612.95
2019-03-16T01:51:08.969Z,100631.79
2019-03-16T01:53:38.200Z,100619.52
2019-03-16T01:56:07.566Z,100611.70
2019-03-16T01:58:36.936Z,100625.36
2019-03-16T02:01:06.204Z,100624.33
2019-03-16T02:03:35.399Z,100626.09
2019-03-16T02:06:04.584Z,100626.50
2019-03-16T02:08:33.794Z,100618.69
2019-03-16T02:11:03.102Z,100631.84
2019-03-16T02:13:32.418Z,100623.55
2019-03-16T02:16:10.933Z,100652.94
2019-03-16T02:18:31.034Z,100630.08
2019-03-16T02:21:00.349Z,100637.97
2019-03-16T02:23:29.600Z,100639.69
2019-03-16T02:25:58.824Z,100639.69
2019-03-16T02:28:28.054Z,100641.81
2019-03-16T02:30:57.325Z,100640.58
2019-03-16T02:33:26.547Z,100651.14
2019-03-16T02:35:55.914Z,100638.89
2019-03-16T02:38:25.195Z,100642.38
2019-03-16T02:40:54.432Z,100643.70
2019-03-16T02:43:23.753Z,100658.01
2019-03-16T02:45:53.020Z,100665.14
2019-03-16T02:48:22.210Z,100655.55
2019-03-16T02:50:51.392Z,100658.01
2019-03-16T02:53:20.649Z,100675.67
2019-03-16T02:55:49.844Z,100675.32
2019-03-16T02:58:19.065Z,100677.55
2019-03-16T03:00:48.270Z,100672.75
2019-03-16T03:03:29.062Z,100679.84
2019-03-16T03:05:46.701Z,100678.09
2019-03-16T03:08:16.021Z,100690.34
2019-03-16T03:10:45.246Z,100688.66
2019-03-16T03:13:14.557Z,100688.77
2019-03-16T03:15:43.696Z,100693.60
2019-03-16T03:18:12.988Z,100685.19
2019-03-16T03:20:42.213Z,100707.19
2019-03-16T03:23:11.552Z,100710.34
2019-03-16T03:25:40.936Z,100720.02
2019-03-16T03:28:10.226Z,100726.59
2019-03-16T03:30:39.506Z,100730.97
2019-03-16T03:33:08.734Z,100742.81
2019-03-16T03:35:38.133Z,100747.67
2019-03-16T03:38:07.324Z,100747.76
2019-03-16T03:40:36.533Z,100760.00
2019-03-16T03:43:05.807Z,100743.83
2019-03-16T03:45:35.016Z,100754.80
2019-03-16T03:48:04.299Z,100773.63
2019-03-16T03:50:33.525Z,100763.27
2019-03-16T03:53:02.806Z,100758.92
2019-03-16T03:55:32.170Z,100751.41
2019-03-16T03:58:01.390Z,100761.95
2019-03-16T04:00:30.613Z,100742.67
2019-03-16T04:02:59.908Z,100751.03
2019-03-16T04:05:29.226Z,100749.81
2019-03-16T04:07:58.452Z,100735.39
2019-03-16T04:10:27.728Z,100733.31
2019-03-16T04:12:56.932Z,100738.05
2019-03-16T04:15:26.167Z,100745.48
2019-03-16T04:17:55.400Z,100740.73
2019-03-16T04:20:24.622Z,100750.80
2019-03-16T04:22:53.911Z,100748.73
2019-03-16T04:25:23.136Z,100753.61
2019-03-16T04:27:52.401Z,100755.33
2019-03-16T04:30:21.730Z,100750.04
2019-03-16T04:32:50.901Z,100756.27
2019-03-16T04:35:20.283Z,100758.01
2019-03-16T04:37:49.499Z,100755.77
2019-03-16T04:40:18.822Z,100757.00
2019-03-16T04:42:48.102Z,100749.18
2019-03-16T04:45:17.343Z,100743.38
2019-03-16T04:47:46.534Z,100751.38
2019-03-16T04:50:15.757Z,100744.78
2019-03-16T04:52:45.006Z,100758.39
2019-03-16T04:55:14.256Z,100760.03
2019-03-16T04:57:43.508Z,100747.73
2019-03-16T05:00:12.837Z,100752.14
2019-03-16T05:02:42.070Z,100776.69
2019-03-16T05:05:11.304Z,100762.64
2019-03-16T05:07:40.506Z,100763.41
2019-03-16T05:10:09.770Z,100766.05
2019-03-16T05:12:38.993Z,100771.78
2019-03-16T05:15:08.282Z,100773.85
2019-03-16T05:17:37.494Z,100775.55
2019-03-16T05:20:07.296Z,100777.88
2019-03-16T05:22:36.506Z,100788.33
2019-03-16T05:25:06.324Z,100782.63
2019-03-16T05:27:35.618Z,100783.56
2019-03-16T05:30:05.333Z,100784.78
2019-03-16T05:32:34.562Z,100778.51
2019-03-16T05:35:03.762Z,100784.17
2019-03-16T05:37:33.023Z,100785.49
2019-03-16T05:40:02.256Z,100786.30
2019-03-16T05:42:31.465Z,100781.05
2019-03-16T05:45:00.760Z,100789.70
2019-03-16T05:47:30.170Z,100795.77
2019-03-16T05:49:59.397Z,100789.16
2019-03-16T05:52:28.599Z,100783.44
2019-03-16T05:54:57.967Z,100793.13
2019-03-16T05:57:27.178Z,100791.72
2019-03-16T05:59:56.424Z,100787.79
2019-03-16T06:02:25.653Z,100792.50
2019-03-16T06:04:54.838Z,100781.48
2019-03-16T06:07:24.165Z,100787.66
2019-03-16T06:09:53.428Z,100783.26
2019-03-16T06:12:22.704Z,100784.17
2019-03-16T06:14:51.928Z,100782.02
2019-03-16T06:17:21.129Z,100770.79
2019-03-16T06:19:50.342Z,100773.80
2019-03-16T06:22:19.547Z,100768.37
2019-03-16T06:24:48.760Z,100776.33
2019-03-16T06:27:17.992Z,100771.14
2019-03-16T06:29:47.334Z,100778.02
2019-03-16T06:32:16.528Z,100772.27
2019-03-16T06:34:45.742Z,100785.84
2019-03-16T06:37:14.996Z,100791.42
2019-03-16T06:39:44.222Z,100789.60
2019-03-16T06:42:13.463Z,100790.92
2019-03-16T06:44:42.707Z,100788.31
2019-03-16T06:47:11.974Z,100816.03
2019-03-16T06:49:41.224Z,100813.02
2019-03-16T06:52:10.500Z,100828.33
2019-03-16T06:54:39.740Z,100825.56
2019-03-16T06:57:09.050Z,100831.94
2019-03-16T06:59:38.338Z,100870.80
2019-03-16T07:02:07.574Z,100830.20
2019-03-16T07:04:36.937Z,100837.81
2019-03-16T07:07:07.388Z,100849.02
2019-03-16T07:09:36.592Z,100868.42
2019-03-16T07:12:05.820Z,100843.78
2019-03-16T07:14:35.060Z,100849.56
2019-03-16T07:17:04.312Z,100855.81
2019-03-16T07:19:34.007Z,100860.22
2019-03-16T07:22:02.880Z,100853.74
2019-03-16T07:24:32.129Z,100871.02
2019-03-16T07:27:01.380Z,100863.73
2019-03-16T07:29:30.621Z,100874.70
2019-03-16T07:31:59.900Z,100869.62
2019-03-16T07:34:29.150Z,100873.59
2019-03-16T07:36:58.440Z,100880.46
2019-03-16T07:39:27.690Z,100877.73
2019-03-16T07:41:56.901Z,100875.60
2019-03-16T07:44:26.126Z,100894.50
2019-03-16T07:46:55.395Z,100877.20
2019-03-16T07:49:24.612Z,100878.57
2019-03-16T07:51:53.874Z,100882.45
2019-03-16T07:54:23.109Z,100879.83
2019-03-16T07:56:52.329Z,100886.39
2019-03-16T07:59:21.553Z,100890.80
2019-03-16T08:01:50.880Z,100891.48
2019-03-16T08:04:20.125Z,100890.68
2019-03-16T08:06:49.362Z,100891.13
2019-03-16T08:09:18.794Z,100888.86
2019-03-16T08:11:47.903Z,100883.08
2019-03-16T08:14:17.162Z,100890.98
2019-03-16T08:16:46.693Z,100888.23
2019-03-16T08:19:15.962Z,100881.73
2019-03-16T08:21:45.271Z,100873.31
2019-03-16T08:24:14.494Z,100878.41
2019-03-16T08:26:43.886Z,100873.66
2019-03-16T08:29:13.111Z,100863.50
2019-03-16T08:31:42.381Z,100864.30
2019-03-16T08:34:11.608Z,100870.93
2019-03-16T08:36:40.838Z,100869.16
2019-03-16T08:39:10.184Z,100856.88
2019-03-16T08:41:39.463Z,100866.98
2019-03-16T08:44:08.782Z,100866.00
2019-03-16T08:46:38.060Z,100855.69
2019-03-16T08:49:07.286Z,100855.91
2019-03-16T08:51:36.556Z,100845.69
2019-03-16T08:54:05.799Z,100848.28
2019-03-16T08:56:35.063Z,100847.81
2019-03-16T08:59:04.307Z,100846.20
2019-03-16T09:01:33.532Z,100844.03
2019-03-16T09:04:02.770Z,100859.71
2019-03-16T09:06:32.010Z,100858.28
2019-03-16T09:09:01.280Z,100849.66
2019-03-16T09:11:30.705Z,100852.95
2019-03-16T09:13:59.916Z,100845.72
2019-03-16T09:16:29.187Z,100837.09
2019-03-16T09:18:58.398Z,100827.63
2019-03-16T09:21:27.679Z,100823.36
2019-03-16T09:23:56.890Z,100825.19
2019-03-16T09:26:26.122Z,100828.75
2019-03-16T09:28:59.924Z,100817.45
2019-03-16T09:31:24.580Z,100813.55
2019-03-16T09:33:53.895Z,100807.57
2019-03-16T09:36:23.164Z,100813.34
2019-03-16T09:38:52.402Z,100812.44
2019-03-16T09:41:21.587Z,100812.55
2019-03-16T09:43:50.826Z,100810.49
2019-03-16T09:46:20.166Z,100813.00
2019-03-16T09:48:49.382Z,100808.61
2019-03-16T09:51:18.682Z,100804.79
2019-03-16T09:53:47.881Z,100803.07
2019-03-16T09:56:17.110Z,100792.23
2019-03-16T09:58:46.388Z,100790.56
2019-03-16T10:01:15.611Z,100778.77
2019-03-16T10:03:44.809Z,100765.58
2019-03-16T10:06:14.051Z,100766.37
2019-03-16T10:08:43.264Z,100747.88
2019-03-16T10:11:12.450Z,100739.42
2019-03-16T10:13:41.725Z,100742.72
2019-03-16T10:16:10.950Z,100733.34
2019-03-16T10:18:40.184Z,100739.36
2019-03-16T10:21:09.358Z,100721.50
2019-03-16T10:23:38.627Z,100720.20
2019-03-16T10:26:07.826Z,100699.19
2019-03-16T10:28:43.709Z,100701.05
2019-03-16T10:31:06.274Z,100694.85
2019-03-16T10:33:35.494Z,100694.32
2019-03-16T10:36:04.726Z,100687.31
2019-03-16T10:38:33.973Z,100672.85
2019-03-16T10:41:03.188Z,100674.51
2019-03-16T10:43:32.420Z,100665.70
2019-03-16T10:46:01.710Z,100650.92
2019-03-16T10:48:30.918Z,100645.98
2019-03-16T10:51:00.191Z,100634.48
2019-03-16T10:53:29.432Z,100633.63
2019-03-16T10:55:58.766Z,100639.30
2019-03-16T10:58:28.022Z,100634.50
2019-03-16T11:00:57.234Z,100627.66
2019-03-16T11:03:26.504Z,100618.42
2019-03-16T11:05:55.822Z,100607.38
2019-03-16T11:08:25.128Z,100600.27
2019-03-16T11:10:54.346Z,100606.30
2019-03-16T11:13:23.548Z,100600.55
2019-03-16T11:15:52.772Z,100595.56
2019-03-16T11:18:21.996Z,100584.97
2019-03-16T11:20:51.199Z,100589.37
2019-03-16T11:23:20.414Z,100560.72
2019-03-16T11:25:49.649Z,100560.89
2019-03-16T11:28:18.912Z,100554.20
2019-03-16T11:30:48.220Z,100552.71
2019-03-16T11:33:17.450Z,100562.63
2019-03-16T11:35:46.694Z,100558.55
2019-03-16T11:38:15.932Z,100559.87
2019-03-16T11:40:45.202Z,100540.84
2019-03-16T11:43:14.516Z,100546.19
2019-03-16T11:45:44.009Z,100532.18
2019-03-16T11:48:13.196Z,100533.92
2019-03-16T11:50:42.469Z,100529.95
2019-03-16T11:53:11.710Z,100521.13
2019-03-16T11:55:41.009Z,100519.27
2019-03-16T11:58:10.571Z,100509.11
2019-03-16T12:00:39.822Z,100504.09
2019-03-16T12:03:09.075Z,100500.00
2019-03-16T12:05:38.408Z,100499.86
2019-03-16T12:08:07.726Z,100496.17
2019-03-16T12:10:37.105Z,100487.66
2019-03-16T12:13:16.660Z,100474.23
2019-03-16T12:15:35.831Z,100478.89
2019-03-16T12:18:05.110Z,100475.92
2019-03-16T12:20:34.411Z,100473.42
2019-03-16T12:23:03.591Z,100466.16
2019-03-16T12:25:32.867Z,100470.22
2019-03-16T12:28:02.120Z,100461.14
2019-03-16T12:30:31.415Z,100456.73
2019-03-16T12:33:00.636Z,100451.89
2019-03-16T12:35:29.906Z,100454.80
2019-03-16T12:37:59.134Z,100455.13
2019-03-16T12:40:28.403Z,100449.39
2019-03-16T12:42:57.841Z,100448.77
2019-03-16T12:45:27.107Z,100442.39
2019-03-16T12:47:56.349Z,100449.35
2019-03-16T12:50:25.681Z,100441.36
2019-03-16T12:52:54.919Z,100441.36
2019-03-16T12:55:26.911Z,100442.17
2019-03-16T12:57:56.160Z,100446.19
2019-03-16T13:00:25.418Z,100426.70
2019-03-16T13:02:54.680Z,100410.03
2019-03-16T13:05:23.923Z,100394.18
2019-03-16T13:07:53.152Z,100413.11
2019-03-16T13:10:25.538Z,100416.17
2019-03-16T13:12:51.613Z,100398.22
2019-03-16T13:15:20.915Z,100407.47
2019-03-16T13:17:50.285Z,100416.08
2019-03-16T13:20:19.488Z,100415.79
2019-03-16T13:22:49.061Z,100409.91
2019-03-16T13:25:19.241Z,100417.82
2019-03-16T13:27:48.729Z,100424.14
2019-03-16T13:30:17.989Z,100424.14
2019-03-16T13:32:47.184Z,100407.16
2019-03-16T13:35:16.430Z,100407.16
2019-03-16T13:37:45.675Z,100407.12
2019-03-16T13:40:14.893Z,100398.88
2019-03-16T13:42:44.138Z,100398.66
2019-03-16T13:45:13.390Z,100411.31
2019-03-16T13:47:42.633Z,100391.66
2019-03-16T13:50:12.216Z,100380.28
2019-03-16T13:52:41.601Z,100400.73
2019-03-16T13:55:10.828Z,100385.64
2019-03-16T13:57:40.085Z,100372.03
2019-03-16T14:00:12.312Z,100372.41
2019-03-16T14:02:40.267Z,100391.12
2019-03-16T14:05:09.529Z,100375.13
2019-03-16T14:07:38.864Z,100359.48
2019-03-16T14:10:11.070Z,100377.11
2019-03-16T14:12:40.335Z,100377.11
2019-03-16T14:15:09.613Z,100365.20
2019-03-16T14:17:41.618Z,100372.48
2019-03-16T14:20:12.672Z,100372.48
2019-03-16T14:22:43.792Z,100365.16
2019-03-16T14:25:13.162Z,100374.42
2019-03-16T14:27:42.337Z,100364.11
2019-03-16T14:30:25.617Z,100366.06
2019-03-16T14:32:43.042Z,100353.91
2019-03-16T14:35:12.340Z,100368.52
2019-03-16T14:37:41.637Z,100358.87
2019-03-16T14:40:13.480Z,100356.28
2019-03-16T14:42:42.905Z,100343.72
2019-03-16T14:45:12.214Z,100342.02
2019-03-16T14:47:41.629Z,100344.11
2019-03-16T14:50:16.760Z,100359.67
2019-03-16T14:52:45.663Z,100336.45
2019-03-16T14:55:14.931Z,100379.55
2019-03-16T14:57:44.224Z,100379.55
2019-03-16T15:00:14.124Z,100357.62
2019-03-16T15:02:45.925Z,100381.28
2019-03-16T15:05:12.619Z,100346.73
2019-03-16T15:07:42.107Z,100356.32
2019-03-16T15:10:13.347Z,100371.77
2019-03-16T15:12:43.009Z,100360.66
2019-03-16T15:15:13.211Z,100351.45
2019-03-16T15:17:42.661Z,100355.38
2019-03-16T15:20:11.901Z,100354.39
2019-03-16T15:22:41.156Z,100327.97
2019-03-16T15:25:11.386Z,100327.97
2019-03-16T15:27:39.757Z,100327.58
2019-03-16T15:30:11.546Z,100327.58
2019-03-16T15:32:40.790Z,100322.66
2019-03-16T15:35:10.034Z,100310.09
2019-03-16T15:37:42.335Z,100325.55
2019-03-16T15:40:14.015Z,100311.93
2019-03-16T15:42:43.265Z,100322.14
2019-03-16T15:45:14.624Z,100329.31
2019-03-16T15:47:43.966Z,100323.08
2019-03-16T15:50:13.455Z,100340.09
2019-03-16T15:52:42.758Z,100340.09
2019-03-16T15:55:11.993Z,100323.55
2019-03-16T15:57:42.733Z,100318.87
2019-03-16T16:00:11.388Z,100317.98
2019-03-16T16:02:40.618Z,100336.52
2019-03-16T16:05:09.970Z,100332.22
2019-03-16T16:07:39.596Z,100317.80
2019-03-16T16:10:11.095Z,100334.59
2019-03-16T16:12:40.354Z,100324.47
2019-03-16T16:15:09.676Z,100324.15
2019-03-16T16:17:38.976Z,100324.67
2019-03-16T16:20:08.788Z,100336.53
2019-03-16T16:22:38.036Z,100313.05
2019-03-16T16:25:08.135Z,100322.52
2019-03-16T16:27:37.411Z,100322.33
2019-03-16T16:30:07.782Z,100322.33
2019-03-16T16:32:37.052Z,100309.09
2019-03-16T16:35:06.335Z,100303.09
2019-03-16T16:37:35.592Z,100286.51
2019-03-16T16:40:05.394Z,100286.51
2019-03-16T16:42:34.700Z,100290.66
2019-03-16T16:45:03.993Z,100290.66
2019-03-16T16:47:33.226Z,100324.30
2019-03-16T16:50:02.467Z,100282.52
2019-03-16T16:52:31.688Z,100278.81
2019-03-16T16:55:00.906Z,100275.73
2019-03-16T16:57:30.119Z,100278.55
2019-03-16T16:59:59.317Z,100285.86
2019-03-16T17:02:28.834Z,100273.53
2019-03-16T17:04:58.170Z,100276.30
2019-03-16T17:07:27.348Z,100276.30
2019-03-16T17:09:56.874Z,100277.28
2019-03-16T17:12:26.256Z,100274.07
2019-03-16T17:14:55.660Z,100280.02
2019-03-16T17:17:34.706Z,100275.51
2019-03-16T17:19:54.204Z,100264.06
2019-03-16T17:22:23.503Z,100261.48
2019-03-16T17:24:52.774Z,100265.77
2019-03-16T17:27:21.985Z,100249.03
2019-03-16T17:29:51.233Z,100251.42
2019-03-16T17:32:20.576Z,100237.34
2019-03-16T17:34:49.832Z,100261.17
2019-03-16T17:37:19.266Z,100237.61
2019-03-16T17:39:48.440Z,100235.27
2019-03-16T17:42:17.662Z,100243.27
2019-03-16T17:44:46.855Z,100254.14
2019-03-16T17:47:16.104Z,100233.55
2019-03-16T17:49:45.522Z,100249.44
2019-03-16T17:52:14.778Z,100257.16
2019-03-16T17:54:44.078Z,100251.66
2019-03-16T17:57:13.404Z,100251.66
2019-03-16T17:59:42.726Z,100256.55
2019-03-16T18:02:11.974Z,100240.75
2019-03-16T18:04:41.313Z,100240.75
2019-03-16T18:07:10.525Z,100254.30
2019-03-16T18:09:39.826Z,100271.72
2019-03-16T18:12:09.137Z,100259.88
2019-03-16T18:14:38.441Z,100262.15
2019-03-16T18:17:07.675Z,100254.52
2019-03-16T18:19:37.083Z,100256.95
2019-03-16T18:22:06.312Z,100244.72
2019-03-16T18:24:35.682Z,100247.95
2019-03-16T18:27:04.930Z,100250.06
2019-03-16T18:29:34.244Z,100250.06
2019-03-16T18:32:08.184Z,100250.00
2019-03-16T18:34:32.776Z,100249.74
2019-03-16T18:37:02.047Z,100258.48
2019-03-16T18:39:31.393Z,100248.86
2019-03-16T18:42:00.667Z,100245.52
2019-03-16T18:44:30.038Z,100241.11
2019-03-16T18:46:59.323Z,100247.11
2019-03-16T18:49:28.688Z,100251.66
2019-03-16T18:51:58.144Z,100249.80
2019-03-16T18:54:27.397Z,100242.70
2019-03-16T18:56:56.660Z,100261.36
2019-03-16T18:59:25.876Z,100261.36
2019-03-16T19:01:55.150Z,100259.97
2019-03-16T19:04:24.378Z,100271.09
2019-03-16T19:06:53.744Z,100262.36
2019-03-16T19:09:22.998Z,100244.03
2019-03-16T19:11:52.228Z,100254.03
2019-03-16T19:14:21.535Z,100258.34
2019-03-16T19:16:50.904Z,100249.74
2019-03-16T19:19:20.255Z,100243.91
2019-03-16T19:21:49.489Z,100229.47
2019-03-16T19:24:18.840Z,100245.25
2019-03-16T19:26:48.090Z,100250.64
2019-03-16T19:29:17.340Z,100240.21
2019-03-16T19:31:46.570Z,100241.66
2019-03-16T19:34:16.149Z,100230.15
2019-03-16T19:36:45.472Z,100240.13
2019-03-16T19:39:14.704Z,100238.62
2019-03-16T19:41:44.064Z,100242.07
2019-03-16T19:44:13.181Z,100235.51
2019-03-16T19:46:42.477Z,100239.01
2019-03-16T19:49:11.954Z,100236.63
2019-03-16T19:51:41.230Z,100242.17
2019-03-16T19:54:10.453Z,100244.39
2019-03-16T19:56:39.707Z,100227.23
2019-03-16T19:59:09.118Z,100241.64
2019-03-16T20:01:38.372Z,100252.88
2019-03-16T20:04:07.626Z,100235.44
2019-03-16T20:06:36.853Z,100235.55
2019-03-16T20:09:07.610Z,100234.77
2019-03-16T20:11:36.914Z,100235.28
2019-03-16T20:14:06.161Z,100228.03
2019-03-16T20:16:35.387Z,100240.11
2019-03-16T20:19:04.689Z,100225.44
2019-03-16T20:21:34.008Z,100234.27
2019-03-16T20:24:03.314Z,100241.97
2019-03-16T20:26:32.766Z,100241.66
2019-03-16T20:29:02.094Z,100242.29
2019-03-16T20:31:31.549Z,100229.20
2019-03-16T20:34:00.792Z,100226.23
2019-03-16T20:36:30.160Z,100238.79
2019-03-16T20:38:59.387Z,100238.79
2019-03-16T20:41:36.125Z,100229.98
2019-03-16T20:43:58.034Z,100226.39
2019-03-16T20:46:27.293Z,100210.59
2019-03-16T20:48:56.528Z,100226.48
2019-03-16T20:51:25.876Z,100223.84
2019-03-16T20:53:55.106Z,100220.40
2019-03-16T20:56:24.328Z,100219.77
2019-03-16T20:58:53.658Z,100210.66
2019-03-16T21:01:23.119Z,100215.48
2019-03-16T21:03:52.324Z,100198.27
2019-03-16T21:06:21.580Z,100214.47
2019-03-16T21:09:02.665Z,100205.73
2019-03-16T21:11:20.104Z,100203.97
2019-03-16T21:13:49.299Z,100191.26
2019-03-16T21:16:18.537Z,100187.09
2019-03-16T21:18:48.080Z,100187.09
2019-03-16T21:21:17.004Z,100187.94
2019-03-16T21:23:46.235Z,100190.31
2019-03-16T21:26:15.486Z,100182.68
2019-03-16T21:28:44.719Z,100177.28
2019-03-16T21:31:13.974Z,100186.23
2019-03-16T21:33:45.748Z,100182.80
2019-03-16T21:36:12.725Z,100169.99
2019-03-16T21:38:43.851Z,100169.99
2019-03-16T21:41:11.216Z,100171.48
2019-03-16T21:43:40.470Z,100156.16
2019-03-16T21:46:09.684Z,100157.01
2019-03-16T21:48:39.082Z,100164.16
2019-03-16T21:51:08.254Z,100159.88
2019-03-16T21:53:37.542Z,100164.86
2019-03-16T21:56:06.792Z,100147.64
2019-03-16T21:58:38.497Z,100129.67
2019-03-16T22:01:07.777Z,100128.03
2019-03-16T22:03:41.868Z,100129.05
2019-03-16T22:06:06.307Z,100118.08
2019-03-16T22:08:35.559Z,100100.30
2019-03-16T22:11:05.533Z,100109.88
2019-03-16T22:13:34.091Z,100109.88
2019-03-16T22:16:03.359Z,100115.65
2019-03-16T22:18:32.609Z,100115.27
2019-03-16T22:21:01.936Z,100101.78
2019-03-16T22:23:31.152Z,100101.78
2019-03-16T22:26:00.452Z,100096.89
2019-03-16T22:28:29.691Z,100095.56
2019-03-16T22:30:58.913Z,100092.13
2019-03-16T22:33:28.160Z,100088.53
2019-03-16T22:35:57.420Z,100089.23
2019-03-16T22:38:26.769Z,100089.23
2019-03-16T22:40:56.086Z,100092.45
2019-03-16T22:43:25.424Z,100083.78
2019-03-16T22:45:54.636Z,100083.78
2019-03-16T22:48:23.844Z,100076.16
2019-03-16T22:50:53.140Z,100083.02
2019-03-16T22:53:22.497Z,100066.19
2019-03-16T22:55:51.687Z,100066.19
2019-03-16T22:58:20.927Z,100074.07
2019-03-16T23:00:50.432Z,100055.06
2019-03-16T23:03:19.716Z,100049.92
2019-03-16T23:05:49.019Z,100039.66
2019-03-16T23:08:18.363Z,100033.03
2019-03-16T23:10:47.707Z,100025.78
2019-03-16T23:13:17.008Z,100025.78
2019-03-16T23:15:46.237Z,100039.34
2019-03-16T23:18:16.624Z,100032.72
2019-03-16T23:20:45.837Z,100027.64
2019-03-16T23:23:15.198Z,100023.82
2019-03-16T23:25:44.485Z,99990.41
2019-03-16T23:28:13.809Z,100022.59
2019-03-16T23:30:43.107Z,100011.84
2019-03-16T23:33:12.373Z,100011.84
2019-03-16T23:35:41.663Z,99991.03
2019-03-16T23:38:10.927Z,100003.75
2019-03-16T23:40:40.241Z,99985.11
2019-03-16T23:43:09.465Z,99990.03
2019-03-16T23:45:38.723Z,99995.39
2019-03-16T23:48:07.996Z,99983.17
2019-03-16T23:50:37.327Z,99989.08
2019-03-16T23:53:06.569Z,99980.67
2019-03-16T23:55:35.795Z,99984.58
2019-03-16T23:58:05.011Z,99959.56
